Porter, Texas
Current Conditions -  °F | °C
As of 10:53 AM on Monday 22 Dec 2014 (Local Time) from KIAH Reporting Station
Broken Clouds Broken Clouds  
Wind Chill: 69°   Ceiling: 25000
Heat Index: 69°   Visibility: 10mi
Dew Point: 58°   Wind: 14mph
Humidity: 68%   Direction: 220°SW
Pressure: 29.74"   Gusts: 23mph
Location:  30.1°N, 95.23°W
Report Text: KIAH 221653Z 22012G20KT 10SM SCT025 BKN250 21/14 A2974 RMK AO2 SLP071 T02060144
Loading
Personal Weather Stations






























Interactive Weather Map New forecast layout! Learn more

10-Day Weather Forecast

Advertisements
Track Severe Weather on mobile